createdAt,value
2019-03-23T00:02:22.434Z,10.58
2019-03-23T00:07:28.648Z,10.54
2019-03-23T00:12:34.798Z,10.50
2019-03-23T00:17:40.651Z,10.60
2019-03-23T00:22:47.422Z,10.55
2019-03-23T00:27:53.235Z,10.43
2019-03-23T00:32:59.040Z,10.42
2019-03-23T00:38:04.966Z,10.37
2019-03-23T00:43:10.859Z,10.30
2019-03-23T00:48:16.664Z,10.13
2019-03-23T00:53:22.799Z,10.20
2019-03-23T00:58:29.598Z,10.18
2019-03-23T01:03:35.754Z,10.23
2019-03-23T01:08:42.107Z,10.15
2019-03-23T01:13:48.215Z,10.17
2019-03-23T01:18:54.234Z,10.04
2019-03-23T01:24:00.025Z,9.79
2019-03-23T01:29:05.819Z,9.41
2019-03-23T01:34:14.061Z,9.19
2019-03-23T01:39:19.863Z,9.01
2019-03-23T01:44:25.666Z,9.09
2019-03-23T01:49:32.565Z,9.11
2019-03-23T01:54:38.379Z,8.92
2019-03-23T01:59:44.188Z,8.72
2019-03-23T02:04:50.854Z,8.72
2019-03-23T02:09:56.675Z,8.62
2019-03-23T02:15:03.656Z,8.50
2019-03-23T02:20:10.490Z,8.39
2019-03-23T02:25:16.723Z,8.31
2019-03-23T02:30:23.604Z,8.17
2019-03-23T02:35:29.424Z,8.04
2019-03-23T02:40:35.269Z,7.95
2019-03-23T02:45:41.067Z,7.84
2019-03-23T02:50:47.107Z,7.80
2019-03-23T02:55:53.325Z,7.80
2019-03-23T03:00:59.127Z,7.69
2019-03-23T03:06:04.958Z,7.70
2019-03-23T03:11:11.952Z,7.64
2019-03-23T03:16:18.602Z,7.68
2019-03-23T03:21:25.217Z,7.72
2019-03-23T03:26:31.390Z,7.77
2019-03-23T03:31:37.446Z,7.72
2019-03-23T03:36:44.635Z,7.63
2019-03-23T03:41:50.573Z,7.57
2019-03-23T03:46:56.367Z,7.53
2019-03-23T03:52:02.499Z,7.49
2019-03-23T03:57:09.195Z,7.42
2019-03-23T04:02:15.834Z,7.39
2019-03-23T04:07:21.721Z,7.37
2019-03-23T04:12:28.587Z,7.30
2019-03-23T04:17:34.630Z,7.29
2019-03-23T04:22:41.237Z,7.30
2019-03-23T04:27:47.238Z,7.25
2019-03-23T04:32:54.241Z,7.21
2019-03-23T04:37:59.929Z,7.22
2019-03-23T04:43:05.902Z,7.23
2019-03-23T04:48:11.666Z,7.16
2019-03-23T04:53:17.352Z,7.09
2019-03-23T04:58:23.370Z,7.06
2019-03-23T05:03:29.980Z,7.00
2019-03-23T05:08:36.238Z,6.95
2019-03-23T05:13:41.860Z,6.93
2019-03-23T05:18:47.471Z,6.90
2019-03-23T05:23:53.417Z,6.91
2019-03-23T05:28:59.964Z,6.88
2019-03-23T05:34:06.134Z,6.89
2019-03-23T05:39:11.811Z,6.93
2019-03-23T05:44:17.571Z,6.92
2019-03-23T05:49:23.638Z,6.95
2019-03-23T05:54:29.311Z,6.97
2019-03-23T05:59:35.010Z,7.02
2019-03-23T06:04:41.738Z,7.10
2019-03-23T06:09:47.435Z,7.28
2019-03-23T06:14:53.119Z,7.45
2019-03-23T06:19:58.945Z,7.48
2019-03-23T06:25:05.323Z,7.56
2019-03-23T06:30:11.482Z,7.69
2019-03-23T06:35:17.278Z,7.79
2019-03-23T06:40:23.788Z,7.88
2019-03-23T06:45:29.687Z,8.04
2019-03-23T06:50:36.214Z,8.16
2019-03-23T06:55:41.906Z,8.27
2019-03-23T07:00:48.077Z,8.40
2019-03-23T07:05:55.911Z,8.54
2019-03-23T07:11:01.707Z,8.76
2019-03-23T07:16:07.681Z,8.89
2019-03-23T07:21:14.523Z,9.09
2019-03-23T07:26:20.389Z,9.28
2019-03-23T07:31:26.663Z,9.37
2019-03-23T07:36:33.072Z,9.57
2019-03-23T07:41:39.381Z,9.79
2019-03-23T07:46:48.600Z,9.99
2019-03-23T07:51:54.569Z,10.24
2019-03-23T07:57:03.129Z,10.47
2019-03-23T08:02:09.250Z,10.63
2019-03-23T08:07:16.437Z,10.73
2019-03-23T08:12:26.400Z,10.95
2019-03-23T08:17:37.009Z,11.18
2019-03-23T08:22:45.435Z,11.40
2019-03-23T08:27:54.317Z,11.43
2019-03-23T08:33:00.752Z,11.71
2019-03-23T08:38:08.606Z,11.98
2019-03-23T08:43:19.150Z,12.10
2019-03-23T08:48:25.753Z,12.34
2019-03-23T08:53:31.694Z,12.61
2019-03-23T08:58:35.404Z,12.91
2019-03-23T09:03:51.793Z,13.05
2019-03-23T09:08:49.775Z,13.21
2019-03-23T09:13:58.029Z,13.33
2019-03-23T09:19:05.949Z,13.60
2019-03-23T09:24:13.112Z,14.01
2019-03-23T09:29:22.792Z,14.26
2019-03-23T09:34:33.706Z,14.45
2019-03-23T09:39:45.973Z,14.49
2019-03-23T09:44:56.455Z,14.81
2019-03-23T09:50:05.491Z,15.05
2019-03-23T09:55:13.875Z,15.22
2019-03-23T10:00:21.162Z,15.52
2019-03-23T10:05:28.689Z,15.57
2019-03-23T10:10:39.680Z,15.64
2019-03-23T10:15:48.218Z,16.10
2019-03-23T10:20:55.266Z,16.25
2019-03-23T10:26:04.056Z,16.46
2019-03-23T10:31:11.853Z,16.67
2019-03-23T10:36:19.901Z,16.75
2019-03-23T10:41:29.384Z,16.79
2019-03-23T10:46:41.426Z,17.03
2019-03-23T10:51:56.219Z,16.89
2019-03-23T10:57:03.453Z,16.95
2019-03-23T11:02:12.042Z,17.10
2019-03-23T11:07:24.865Z,17.16
2019-03-23T11:12:31.561Z,17.32
2019-03-23T11:17:40.370Z,17.33
2019-03-23T11:22:52.107Z,17.32
2019-03-23T11:28:00.744Z,17.41
2019-03-23T11:33:08.762Z,17.30
2019-03-23T11:38:17.204Z,17.45
2019-03-23T11:43:28.390Z,17.61
2019-03-23T11:48:38.283Z,17.70
2019-03-23T11:53:48.317Z,17.72
2019-03-23T11:58:56.148Z,17.87
2019-03-23T12:04:04.657Z,17.99
2019-03-23T12:09:13.940Z,18.00
2019-03-23T12:14:21.671Z,18.12
2019-03-23T12:19:32.628Z,18.12
2019-03-23T12:24:40.248Z,18.17
2019-03-23T12:29:48.144Z,18.19
2019-03-23T12:34:55.244Z,18.36
2019-03-23T12:40:04.796Z,18.35
2019-03-23T12:45:14.901Z,18.44
2019-03-23T12:50:20.762Z,18.34
2019-03-23T12:55:26.874Z,18.36
2019-03-23T13:00:32.707Z,18.46
2019-03-23T13:05:38.907Z,18.55
2019-03-23T13:10:44.713Z,18.81
2019-03-23T13:15:51.024Z,18.52
2019-03-23T13:20:56.799Z,18.82
2019-03-23T13:26:02.642Z,18.74
2019-03-23T13:31:08.443Z,18.68
2019-03-23T13:36:14.300Z,18.91
2019-03-23T13:41:20.035Z,19.01
2019-03-23T13:46:25.830Z,19.23
2019-03-23T13:51:31.657Z,19.22
2019-03-23T13:56:37.552Z,19.27
2019-03-23T14:01:43.362Z,19.23
2019-03-23T14:06:51.338Z,19.38
2019-03-23T14:11:59.618Z,19.47
2019-03-23T14:17:05.601Z,19.79
2019-03-23T14:22:15.667Z,19.64
2019-03-23T14:27:22.248Z,19.79
2019-03-23T14:32:29.454Z,19.70
2019-03-23T14:37:37.897Z,19.40
2019-03-23T14:42:50.544Z,19.59
2019-03-23T14:47:57.933Z,18.49
2019-03-23T14:53:07.920Z,18.02
2019-03-23T14:58:18.483Z,16.92
2019-03-23T15:03:27.854Z,16.92
2019-03-23T15:08:36.062Z,16.79
2019-03-23T15:13:47.666Z,16.09
2019-03-23T15:18:58.252Z,16.13
2019-03-23T15:24:10.886Z,15.84
2019-03-23T15:29:17.780Z,15.33
2019-03-23T15:34:28.961Z,14.72
2019-03-23T15:39:39.454Z,14.28
2019-03-23T15:45:03.733Z,14.36
2019-03-23T15:50:22.850Z,14.19
2019-03-23T15:55:33.190Z,14.14
2019-03-23T16:00:42.742Z,13.39
2019-03-23T16:05:53.259Z,13.19
2019-03-23T16:11:08.600Z,12.80
2019-03-23T16:16:19.434Z,12.85
2019-03-23T16:21:29.278Z,12.48
2019-03-23T16:26:35.296Z,12.02
2019-03-23T16:31:41.538Z,11.95
2019-03-23T16:36:49.196Z,11.48
2019-03-23T16:41:57.266Z,11.20
2019-03-23T16:47:03.644Z,11.12
2019-03-23T16:52:15.264Z,11.02
2019-03-23T16:57:22.871Z,10.85
2019-03-23T17:02:31.069Z,10.49
2019-03-23T17:07:37.396Z,10.28
2019-03-23T17:12:43.915Z,10.12
2019-03-23T17:17:49.729Z,9.95
2019-03-23T17:22:55.491Z,9.71
2019-03-23T17:28:01.265Z,9.67
2019-03-23T17:33:09.026Z,9.53
2019-03-23T17:38:15.923Z,9.33
2019-03-23T17:43:21.792Z,9.28
2019-03-23T17:48:27.473Z,9.12
2019-03-23T17:53:34.382Z,9.01
2019-03-23T17:58:40.155Z,8.85
2019-03-23T18:03:45.911Z,8.70
2019-03-23T18:08:51.676Z,8.55
2019-03-23T18:13:57.465Z,8.56
2019-03-23T18:19:03.227Z,8.50
2019-03-23T18:24:09.138Z,8.41
2019-03-23T18:29:15.963Z,8.30
2019-03-23T18:34:22.370Z,8.23
2019-03-23T18:39:29.396Z,8.21
2019-03-23T18:44:35.284Z,8.23
2019-03-23T18:49:41.049Z,8.22
2019-03-23T18:54:46.915Z,8.15
2019-03-23T18:59:52.990Z,8.05
2019-03-23T19:04:59.062Z,8.03
2019-03-23T19:10:05.604Z,8.02
2019-03-23T19:15:11.997Z,7.99
2019-03-23T19:20:18.209Z,7.95
2019-03-23T19:25:24.340Z,7.91
2019-03-23T19:30:30.208Z,7.92
2019-03-23T19:35:35.910Z,7.87
2019-03-23T19:40:43.255Z,7.92
2019-03-23T19:45:49.302Z,7.93
2019-03-23T19:50:55.035Z,7.84
2019-03-23T19:56:01.282Z,7.80
2019-03-23T20:01:07.269Z,7.75
2019-03-23T20:06:13.046Z,7.59
2019-03-23T20:11:18.826Z,7.55
2019-03-23T20:16:24.591Z,7.38
2019-03-23T20:21:30.279Z,7.40
2019-03-23T20:26:36.367Z,7.39
2019-03-23T20:31:42.692Z,7.33
2019-03-23T20:36:49.098Z,7.09
2019-03-23T20:41:54.994Z,7.06
2019-03-23T20:47:01.670Z,7.10
2019-03-23T20:52:08.659Z,7.15
2019-03-23T20:57:23.379Z,7.13
2019-03-23T21:02:22.168Z,7.11
2019-03-23T21:07:28.254Z,7.18
2019-03-23T21:12:34.387Z,7.12
2019-03-23T21:17:50.652Z,7.13
2019-03-23T21:22:47.822Z,7.12
2019-03-23T21:27:54.916Z,7.14
2019-03-23T21:33:01.036Z,7.12
2019-03-23T21:38:06.729Z,7.03
2019-03-23T21:43:12.495Z,6.80
2019-03-23T21:48:19.243Z,6.76
2019-03-23T21:53:26.442Z,6.57
2019-03-23T21:58:32.481Z,6.52
2019-03-23T22:03:38.279Z,6.51
2019-03-23T22:08:44.287Z,6.59
2019-03-23T22:13:50.082Z,6.68
2019-03-23T22:18:56.134Z,6.63
2019-03-23T22:24:01.821Z,6.59
2019-03-23T22:29:07.657Z,6.62
2019-03-23T22:34:13.462Z,6.55
2019-03-23T22:39:20.437Z,6.49
2019-03-23T22:44:27.373Z,6.47
2019-03-23T22:49:34.181Z,6.46
2019-03-23T22:54:40.394Z,6.44
2019-03-23T22:59:46.010Z,6.38
2019-03-23T23:04:52.431Z,6.26
2019-03-23T23:09:58.513Z,6.30
2019-03-23T23:15:05.155Z,6.41
2019-03-23T23:20:12.070Z,6.45
2019-03-23T23:25:17.820Z,6.48
2019-03-23T23:30:23.531Z,6.51
2019-03-23T23:35:29.526Z,6.43
2019-03-23T23:40:35.524Z,6.28
2019-03-23T23:45:41.280Z,6.21
2019-03-23T23:50:48.044Z,6.14
2019-03-23T23:55:53.806Z,6.10
